Time;durP1;ratioP1;P1;durP2;ratioP2;P2;SDS_P1;SDS_P2;PMS_P1;PMS_P2;Temp;Humidity;BMP_temperature;BMP_pressure;BME280_temperature;BME280_humidity;BME280_pressure;Samples;Min_cycle;Max_cycle;Signal;HPM_P1;HPM_P2
2022/12/22 03:26:38;;;;;;;0.10;0.10;;;;;;;;;;5017084;28;20026;-72
2022/12/22 03:29:03;;;;;;;0.10;0.10;;;;;;;;;;5017479;28;20439;-72
2022/12/22 03:31:29;;;;;;;0.10;0.10;;;;;;;;;;5016828;28;20025;-70
2022/12/22 03:33:54;;;;;;;0.20;0.20;;;;;;;;;;5016752;28;20477;-70
2022/12/22 03:36:19;;;;;;;0.10;0.10;;;;;;;;;;5016902;28;20037;-70
2022/12/22 03:38:45;;;;;;;0.10;0.10;;;;;;;;;;5016709;28;20034;-70
2022/12/22 03:46:29;;;;;;;0.15;0.15;;;;;;;;;;5016760;28;20050;-70
2022/12/22 03:46:42;;;;;;;0.10;0.10;;;;;;;;;;5016870;28;20072;-70
2022/12/22 03:49:11;;;;;;;0.13;0.13;;;;;;;;;;5016895;28;20493;-70
2022/12/22 03:51:39;;;;;;;0.10;0.10;;;;;;;;;;5016559;28;20018;-70
2022/12/22 03:54:05;;;;;;;0.20;0.20;;;;;;;;;;5016829;28;20026;-70
2022/12/22 03:56:31;;;;;;;0.10;0.10;;;;;;;;;;5016266;28;20076;-70
2022/12/22 03:58:56;;;;;;;0.90;0.90;;;;;;;;;;5016576;28;20072;-70
2022/12/22 04:01:21;;;;;;;0.10;0.10;;;;;;;;;;5016231;28;20161;-70
2022/12/22 04:03:47;;;;;;;0.25;0.25;;;;;;;;;;5010629;28;20427;-70
2022/12/22 04:06:13;;;;;;;3.78;1.05;;;;;;;;;;5012835;28;20037;-70
2022/12/22 04:08:38;;;;;;;0.10;0.10;;;;;;;;;;5012831;28;20021;-71
2022/12/22 04:13:47;;;;;;;0.80;0.80;;;;;;;;;;5012989;28;20022;-70
2022/12/22 04:16:13;;;;;;;1.17;1.13;;;;;;;;;;5011140;28;20370;-71
2022/12/22 04:18:38;;;;;;;0.73;0.73;;;;;;;;;;5012271;28;20033;-71
2022/12/22 04:21:04;;;;;;;0.68;0.68;;;;;;;;;;5012203;28;20033;-72
2022/12/22 04:23:29;;;;;;;0.30;0.30;;;;;;;;;;5011978;28;20385;-73
2022/12/22 04:25:55;;;;;;;3.65;1.95;;;;;;;;;;5012818;28;20036;-72
2022/12/22 04:28:20;;;;;;;0.10;0.10;;;;;;;;;;5012473;28;20053;-71
2022/12/22 04:30:48;;;;;;;0.20;0.20;;;;;;;;;;5012142;28;20063;-71
2022/12/22 04:33:13;;;;;;;0.13;0.13;;;;;;;;;;5010844;28;20069;-70
2022/12/22 04:35:38;;;;;;;1.05;1.05;;;;;;;;;;5010293;28;20046;-70
2022/12/22 04:38:04;;;;;;;0.40;0.40;;;;;;;;;;5011903;28;20388;-70
2022/12/22 04:40:29;;;;;;;0.10;0.10;;;;;;;;;;5011532;28;20046;-71
2022/12/22 04:42:55;;;;;;;1.08;1.00;;;;;;;;;;5012120;28;20033;-71
2022/12/22 04:45:20;;;;;;;0.10;0.10;;;;;;;;;;5011319;28;20358;-70
2022/12/22 04:47:45;;;;;;;0.90;0.85;;;;;;;;;;5011989;28;20037;-70
2022/12/22 04:50:11;;;;;;;0.30;0.30;;;;;;;;;;5011951;28;20030;-71
2022/12/22 04:52:37;;;;;;;1.95;1.65;;;;;;;;;;5011242;28;20028;-71
2022/12/22 04:55:02;;;;;;;0.65;0.65;;;;;;;;;;5011491;28;20026;-70
2022/12/22 04:57:28;;;;;;;0.10;0.10;;;;;;;;;;5010288;28;20030;-69
2022/12/22 04:59:54;;;;;;;0.10;0.10;;;;;;;;;;5011423;28;20030;-70
2022/12/22 05:02:20;;;;;;;0.20;0.20;;;;;;;;;;5011608;28;20413;-70
2022/12/22 05:04:45;;;;;;;0.88;0.88;;;;;;;;;;5011612;28;20030;-71
2022/12/22 05:07:10;;;;;;;1.13;1.13;;;;;;;;;;5011583;28;20030;-73
2022/12/22 05:09:36;;;;;;;0.20;0.20;;;;;;;;;;5010899;28;20033;-72
2022/12/22 05:12:53;;;;;;;0.10;0.10;;;;;;;;;;5010200;28;20033;-73
2022/12/22 05:14:47;;;;;;;0.10;0.10;;;;;;;;;;5011463;28;20030;-72
2022/12/22 05:17:12;;;;;;;0.47;0.47;;;;;;;;;;5011764;28;20026;-72
2022/12/22 05:19:38;;;;;;;0.80;0.80;;;;;;;;;;5011081;28;20048;-72
2022/12/22 05:22:03;;;;;;;0.20;0.20;;;;;;;;;;5011201;28;20034;-72
2022/12/22 05:24:29;;;;;;;0.15;0.15;;;;;;;;;;5011252;28;20034;-73
2022/12/22 05:26:54;;;;;;;0.10;0.10;;;;;;;;;;5010941;28;20092;-72
2022/12/22 05:29:20;;;;;;;0.10;0.10;;;;;;;;;;5010858;28;20109;-72
2022/12/22 05:31:45;;;;;;;0.17;0.17;;;;;;;;;;5011233;28;20044;-72
2022/12/22 05:34:10;;;;;;;0.10;0.10;;;;;;;;;;5011079;28;20036;-71
2022/12/22 05:36:36;;;;;;;0.20;0.20;;;;;;;;;;5010815;28;20057;-72
2022/12/22 05:39:01;;;;;;;0.38;0.38;;;;;;;;;;5009368;28;20022;-72
2022/12/22 05:41:27;;;;;;;0.20;0.20;;;;;;;;;;5010211;28;20460;-72
2022/12/22 05:43:52;;;;;;;0.10;0.10;;;;;;;;;;5010755;28;20501;-72
2022/12/22 05:46:17;;;;;;;1.35;1.27;;;;;;;;;;5010096;28;20513;-74
2022/12/22 05:48:43;;;;;;;0.30;0.30;;;;;;;;;;5010778;28;20029;-73
2022/12/22 05:51:09;;;;;;;0.10;0.10;;;;;;;;;;5011528;28;20496;-71
2022/12/22 05:53:35;;;;;;;0.10;0.10;;;;;;;;;;5010135;28;20037;-71
2022/12/22 05:56:00;;;;;;;0.22;0.22;;;;;;;;;;5009205;28;20462;-71
2022/12/22 05:58:26;;;;;;;0.10;0.10;;;;;;;;;;5009504;28;20037;-71
2022/12/22 06:00:54;;;;;;;0.30;0.30;;;;;;;;;;5010765;28;20331;-72
2022/12/22 06:03:20;;;;;;;0.47;0.47;;;;;;;;;;5010276;28;20034;-71
2022/12/22 06:05:48;;;;;;;0.10;0.10;;;;;;;;;;5008992;28;20034;-71
2022/12/22 06:08:13;;;;;;;0.20;0.20;;;;;;;;;;5010537;28;20041;-71
2022/12/22 06:10:38;;;;;;;0.10;0.10;;;;;;;;;;5014070;28;20044;-71
2022/12/22 06:13:04;;;;;;;0.10;0.10;;;;;;;;;;5008687;28;20026;-71
2022/12/22 06:15:29;;;;;;;0.20;0.20;;;;;;;;;;5009816;28;20057;-72
2022/12/22 06:17:55;;;;;;;0.63;0.63;;;;;;;;;;4992519;28;20026;-72
2022/12/22 06:20:20;;;;;;;0.30;0.30;;;;;;;;;;5010346;28;20026;-73
2022/12/22 06:22:45;;;;;;;0.10;0.10;;;;;;;;;;5012652;28;20119;-72
2022/12/22 06:25:11;;;;;;;1.00;1.00;;;;;;;;;;5010317;28;20539;-72
2022/12/22 06:27:36;;;;;;;0.10;0.10;;;;;;;;;;5010683;28;20021;-73
2022/12/22 06:30:02;;;;;;;0.10;0.10;;;;;;;;;;5009743;28;20026;-73
2022/12/22 06:32:27;;;;;;;0.20;0.20;;;;;;;;;;5009977;28;20041;-72
2022/12/22 06:34:53;;;;;;;0.47;0.47;;;;;;;;;;5008822;28;20018;-72
2022/12/22 06:37:18;;;;;;;0.10;0.10;;;;;;;;;;5021326;28;20813;-73
2022/12/22 06:39:44;;;;;;;0.10;0.10;;;;;;;;;;5029491;28;20117;-72
2022/12/22 06:44:54;;;;;;;0.10;0.10;;;;;;;;;;5024279;28;20105;-72
2022/12/22 06:47:20;;;;;;;0.68;0.68;;;;;;;;;;5009191;28;20061;-72
2022/12/22 06:49:45;;;;;;;0.10;0.10;;;;;;;;;;5009947;28;20456;-73
2022/12/22 06:52:11;;;;;;;0.10;0.10;;;;;;;;;;5008136;28;20045;-72
2022/12/22 06:54:36;;;;;;;0.10;0.10;;;;;;;;;;5009362;28;20025;-73
2022/12/22 06:57:01;;;;;;;1.40;0.57;;;;;;;;;;5010939;28;20030;-74
2022/12/22 06:59:27;;;;;;;0.10;0.10;;;;;;;;;;5013409;28;20029;-72
2022/12/22 07:01:52;;;;;;;0.10;0.10;;;;;;;;;;5014089;28;20048;-74
2022/12/22 07:04:19;;;;;;;0.10;0.10;;;;;;;;;;5013282;28;20025;-73
2022/12/22 07:06:45;;;;;;;0.10;0.10;;;;;;;;;;5013484;28;20470;-72
2022/12/22 07:09:11;;;;;;;0.10;0.10;;;;;;;;;;5013537;28;20052;-72
2022/12/22 07:11:36;;;;;;;0.10;0.10;;;;;;;;;;5013344;28;20886;-73
2022/12/22 07:14:01;;;;;;;0.90;0.85;;;;;;;;;;5014056;28;20068;-73
2022/12/22 07:16:27;;;;;;;0.10;0.10;;;;;;;;;;5013714;28;20508;-72
2022/12/22 07:18:52;;;;;;;0.47;0.47;;;;;;;;;;5014215;28;20025;-73
2022/12/22 07:21:18;;;;;;;0.10;0.10;;;;;;;;;;5012865;28;20397;-71
2022/12/22 07:23:43;;;;;;;0.20;0.20;;;;;;;;;;5013296;28;20022;-71
2022/12/22 07:26:09;;;;;;;0.10;0.10;;;;;;;;;;5014054;28;20064;-71
2022/12/22 07:28:36;;;;;;;0.22;0.22;;;;;;;;;;5014000;28;20163;-74
2022/12/22 07:31:02;;;;;;;0.20;0.20;;;;;;;;;;5013187;28;20022;-71
2022/12/22 07:33:27;;;;;;;0.10;0.10;;;;;;;;;;5012146;28;20384;-71
2022/12/22 07:36:03;;;;;;;0.10;0.10;;;;;;;;;;5013040;28;20025;-71
2022/12/22 07:38:31;;;;;;;0.30;0.30;;;;;;;;;;5012537;28;20551;-71
2022/12/22 07:40:57;;;;;;;0.22;0.22;;;;;;;;;;5013224;28;20061;-70
2022/12/22 07:43:23;;;;;;;1.48;1.38;;;;;;;;;;5012828;28;20041;-71
2022/12/22 07:45:49;;;;;;;0.10;0.10;;;;;;;;;;5012109;28;20030;-71
2022/12/22 07:51:01;;;;;;;0.10;0.10;;;;;;;;;;5010598;28;20030;-71
2022/12/22 07:53:26;;;;;;;0.20;0.20;;;;;;;;;;5010541;28;20038;-72
2022/12/22 07:55:52;;;;;;;0.20;0.20;;;;;;;;;;5010045;28;20034;-71
2022/12/22 07:58:17;;;;;;;0.10;0.10;;;;;;;;;;5010323;28;20032;-70
2022/12/22 08:00:43;;;;;;;0.10;0.10;;;;;;;;;;5010663;28;20034;-70
2022/12/22 08:03:08;;;;;;;0.10;0.10;;;;;;;;;;5010352;28;20030;-72
2022/12/22 08:05:36;;;;;;;0.73;0.73;;;;;;;;;;5010426;28;20029;-71
2022/12/22 08:08:01;;;;;;;0.22;0.22;;;;;;;;;;5010482;28;20025;-71
2022/12/22 08:10:27;;;;;;;3.15;2.95;;;;;;;;;;5009768;28;20481;-71
2022/12/22 08:12:52;;;;;;;0.20;0.20;;;;;;;;;;5010538;28;20053;-74
2022/12/22 08:15:18;;;;;;;0.77;0.68;;;;;;;;;;5010190;28;20164;-70
2022/12/22 08:17:43;;;;;;;2.72;1.55;;;;;;;;;;5019718;28;20029;-70
2022/12/22 08:20:09;;;;;;;0.20;0.20;;;;;;;;;;5018770;28;20575;-73
2022/12/22 08:22:35;;;;;;;0.10;0.10;;;;;;;;;;5008594;28;20196;-71
2022/12/22 08:25:00;;;;;;;0.20;0.20;;;;;;;;;;5010242;28;20371;-72
2022/12/22 08:27:39;;;;;;;0.10;0.10;;;;;;;;;;5010257;28;20026;-70
2022/12/22 08:30:06;;;;;;;0.10;0.10;;;;;;;;;;5009978;28;20070;-70
2022/12/22 08:32:32;;;;;;;0.10;0.10;;;;;;;;;;5010009;28;20022;-71
2022/12/22 08:34:57;;;;;;;0.25;0.25;;;;;;;;;;5008929;28;20403;-77
2022/12/22 08:37:25;;;;;;;0.15;0.15;;;;;;;;;;5009820;28;20038;-77
2022/12/22 08:39:53;;;;;;;0.10;0.10;;;;;;;;;;5014314;28;20025;-78
2022/12/22 08:42:20;;;;;;;0.10;0.10;;;;;;;;;;5010266;28;20040;-77
2022/12/22 08:44:51;;;;;;;0.10;0.10;;;;;;;;;;5017539;28;20056;-79
2022/12/22 08:47:18;;;;;;;0.10;0.10;;;;;;;;;;5023996;28;20116;-79
2022/12/22 08:49:44;;;;;;;0.10;0.10;;;;;;;;;;5018315;28;20030;-77
2022/12/22 08:52:09;;;;;;;0.10;0.10;;;;;;;;;;5023505;28;20033;-77
2022/12/22 08:54:35;;;;;;;0.10;0.10;;;;;;;;;;5028180;28;20388;-78
2022/12/22 08:57:00;;;;;;;0.10;0.10;;;;;;;;;;5029248;28;20527;-78
2022/12/22 08:59:26;;;;;;;0.10;0.10;;;;;;;;;;5021851;28;20435;-79
2022/12/22 09:01:51;;;;;;;0.10;0.10;;;;;;;;;;5015343;28;20125;-78
2022/12/22 09:04:18;;;;;;;0.10;0.10;;;;;;;;;;5009764;28;20084;-79
2022/12/22 09:06:44;;;;;;;1.40;1.40;;;;;;;;;;5011764;28;20064;-78
2022/12/22 09:09:11;;;;;;;0.30;0.30;;;;;;;;;;5016699;28;20495;-78
2022/12/22 09:11:37;;;;;;;0.10;0.10;;;;;;;;;;5008792;28;20853;-79
2022/12/22 09:14:03;;;;;;;0.10;0.10;;;;;;;;;;5014232;28;20025;-78
2022/12/22 09:16:29;;;;;;;0.10;0.10;;;;;;;;;;5020681;28;20037;-78
2022/12/22 09:18:55;;;;;;;0.40;0.40;;;;;;;;;;5028516;28;20064;-80
2022/12/22 09:21:21;;;;;;;0.10;0.10;;;;;;;;;;5027400;28;20064;-79
2022/12/22 09:23:47;;;;;;;0.10;0.10;;;;;;;;;;5028732;28;20128;-78
2022/12/22 09:26:14;;;;;;;0.13;0.13;;;;;;;;;;5028742;28;20121;-80
2022/12/22 09:28:39;;;;;;;0.10;0.10;;;;;;;;;;5028429;28;20052;-79
2022/12/22 09:31:05;;;;;;;0.10;0.10;;;;;;;;;;5028408;28;20485;-78
2022/12/22 09:33:32;;;;;;;0.20;0.20;;;;;;;;;;5028365;28;20476;-78
2022/12/22 09:35:58;;;;;;;0.10;0.10;;;;;;;;;;5028623;28;20037;-78
2022/12/22 09:38:34;;;;;;;0.10;0.10;;;;;;;;;;5028313;28;20037;-79
2022/12/22 09:41:05;;;;;;;0.20;0.20;;;;;;;;;;5028173;28;20057;-78
2022/12/22 09:43:31;;;;;;;0.10;0.10;;;;;;;;;;5027997;28;20087;-78
2022/12/22 09:45:57;;;;;;;0.10;0.10;;;;;;;;;;5027783;28;20045;-78
2022/12/22 09:48:33;;;;;;;0.10;0.10;;;;;;;;;;5028262;28;20099;-77
2022/12/22 09:50:58;;;;;;;0.10;0.10;;;;;;;;;;5028178;28;20476;-78
2022/12/22 09:53:24;;;;;;;0.82;0.82;;;;;;;;;;5027818;28;20036;-78
2022/12/22 09:55:50;;;;;;;0.17;0.17;;;;;;;;;;5028256;28;20044;-79
2022/12/22 09:58:18;;;;;;;0.10;0.10;;;;;;;;;;5027668;28;20582;-78
2022/12/22 10:00:46;;;;;;;0.10;0.10;;;;;;;;;;5028056;28;20037;-79
2022/12/22 10:03:18;;;;;;;0.32;0.32;;;;;;;;;;5028310;28;20424;-79
2022/12/22 10:05:53;;;;;;;0.40;0.40;;;;;;;;;;5025615;28;20022;-77
2022/12/22 10:08:31;;;;;;;0.10;0.10;;;;;;;;;;5017149;28;20014;-76
2022/12/22 10:10:56;;;;;;;0.15;0.15;;;;;;;;;;5008556;28;20120;-76
2022/12/22 10:13:22;;;;;;;0.10;0.10;;;;;;;;;;5008867;28;20615;-76
2022/12/22 10:15:48;;;;;;;0.10;0.10;;;;;;;;;;5008054;28;20033;-77
2022/12/22 10:18:15;;;;;;;0.20;0.20;;;;;;;;;;5008377;28;20017;-75
2022/12/22 10:20:42;;;;;;;0.22;0.22;;;;;;;;;;5007975;28;20018;-77
2022/12/22 10:23:12;;;;;;;0.10;0.10;;;;;;;;;;5011974;28;20034;-78
2022/12/22 10:25:40;;;;;;;0.25;0.25;;;;;;;;;;5026262;28;20037;-77
2022/12/22 10:28:06;;;;;;;0.20;0.20;;;;;;;;;;5018514;28;20117;-79
2022/12/22 10:30:33;;;;;;;0.10;0.10;;;;;;;;;;5018999;28;20062;-77
2022/12/22 10:33:07;;;;;;;0.20;0.20;;;;;;;;;;5009648;28;20022;-77
2022/12/22 10:35:49;;;;;;;0.20;0.20;;;;;;;;;;5015445;28;20018;-77
2022/12/22 10:38:20;;;;;;;0.17;0.17;;;;;;;;;;5014105;28;20033;-75
2022/12/22 10:40:48;;;;;;;0.20;0.20;;;;;;;;;;5007741;28;20050;-77
2022/12/22 10:43:26;;;;;;;0.33;0.33;;;;;;;;;;5008991;28;20448;-75
2022/12/22 10:45:53;;;;;;;0.10;0.10;;;;;;;;;;5017397;28;20034;-76
2022/12/22 10:48:29;;;;;;;0.10;0.10;;;;;;;;;;5025797;28;20052;-78
2022/12/22 10:50:56;;;;;;;0.10;0.10;;;;;;;;;;5025615;28;20041;-75
2022/12/22 10:53:36;;;;;;;0.17;0.17;;;;;;;;;;5015464;28;20057;-77
2022/12/22 10:56:05;;;;;;;0.30;0.30;;;;;;;;;;5016227;28;20068;-77
2022/12/22 10:58:31;;;;;;;0.20;0.20;;;;;;;;;;5007113;28;20030;-76
2022/12/22 11:01:03;;;;;;;0.13;0.13;;;;;;;;;;5012543;28;20052;-77
2022/12/22 11:03:30;;;;;;;1.35;1.25;;;;;;;;;;5007884;28;20092;-76
2022/12/22 11:05:56;;;;;;;0.10;0.10;;;;;;;;;;5020055;28;20385;-76
2022/12/22 11:08:23;;;;;;;0.10;0.10;;;;;;;;;;5013529;28;20060;-77
2022/12/22 11:11:06;;;;;;;0.20;0.20;;;;;;;;;;5016308;28;20030;-74
2022/12/22 11:13:50;;;;;;;0.10;0.10;;;;;;;;;;5015328;28;20033;-74
2022/12/22 11:16:16;;;;;;;0.80;0.80;;;;;;;;;;5008763;28;20370;-74
2022/12/22 11:18:41;;;;;;;0.10;0.10;;;;;;;;;;5006634;28;20022;-74
2022/12/22 11:21:20;;;;;;;0.10;0.10;;;;;;;;;;5007944;28;20041;-74
2022/12/22 11:23:48;;;;;;;0.30;0.30;;;;;;;;;;5007728;28;20030;-75
2022/12/22 11:26:17;;;;;;;0.15;0.15;;;;;;;;;;5007920;28;20030;-74
2022/12/22 11:29:02;;;;;;;0.10;0.10;;;;;;;;;;5007293;28;20109;-74
2022/12/22 11:31:46;;;;;;;0.10;0.10;;;;;;;;;;5005216;28;20029;-74
2022/12/22 11:34:27;;;;;;;0.50;0.50;;;;;;;;;;5007550;28;20057;-74
2022/12/22 11:36:52;;;;;;;3.95;3.75;;;;;;;;;;5005263;28;20026;-74
2022/12/22 11:39:34;;;;;;;0.20;0.20;;;;;;;;;;5016399;28;20064;-76
2022/12/22 11:42:00;;;;;;;0.20;0.20;;;;;;;;;;5023090;28;20568;-75
2022/12/22 11:44:25;;;;;;;0.10;0.10;;;;;;;;;;5027834;28;20064;-74
2022/12/22 11:46:51;;;;;;;0.10;0.10;;;;;;;;;;5030387;28;20124;-73
2022/12/22 11:49:25;;;;;;;0.20;0.20;;;;;;;;;;5030070;28;20188;-74
2022/12/22 11:52:13;;;;;;;0.10;0.10;;;;;;;;;;5029167;28;20111;-74
2022/12/22 11:54:57;;;;;;;0.10;0.10;;;;;;;;;;5030053;28;20037;-73
2022/12/22 11:57:22;;;;;;;0.10;0.10;;;;;;;;;;5010645;28;20030;-75
2022/12/22 12:00:08;;;;;;;0.20;0.20;;;;;;;;;;5022600;28;20048;-73
2022/12/22 12:03:02;;;;;;;1.48;1.38;;;;;;;;;;5019063;28;20048;-74
2022/12/22 12:05:28;;;;;;;0.95;0.95;;;;;;;;;;5018909;28;20061;-74
2022/12/22 12:07:59;;;;;;;0.20;0.20;;;;;;;;;;5019006;28;20064;-75
2022/12/22 12:10:34;;;;;;;0.22;0.22;;;;;;;;;;5026577;28;20380;-74
2022/12/22 12:13:05;;;;;;;0.40;0.40;;;;;;;;;;5031903;28;20040;-74
2022/12/22 12:15:34;;;;;;;0.20;0.20;;;;;;;;;;5029519;28;20510;-74
2022/12/22 12:18:26;;;;;;;0.40;0.40;;;;;;;;;;5031451;28;20037;-74
2022/12/22 12:20:54;;;;;;;0.20;0.20;;;;;;;;;;5018742;28;20056;-74
2022/12/22 12:23:29;;;;;;;8.98;2.03;;;;;;;;;;5011604;28;20161;-74
2022/12/22 12:25:55;;;;;;;1.20;1.05;;;;;;;;;;5011830;28;20486;-74
2022/12/22 12:28:20;;;;;;;9.27;2.80;;;;;;;;;;5011556;28;20038;-74
2022/12/22 12:30:56;;;;;;;0.30;0.30;;;;;;;;;;5011435;28;20048;-74
2022/12/22 12:33:40;;;;;;;0.30;0.30;;;;;;;;;;5011420;28;20022;-74
2022/12/22 12:36:11;;;;;;;0.30;0.30;;;;;;;;;;5010409;28;20037;-75
2022/12/22 12:38:46;;;;;;;0.20;0.20;;;;;;;;;;5011768;28;20385;-75
2022/12/22 12:41:15;;;;;;;0.30;0.30;;;;;;;;;;5014028;28;20058;-74
2022/12/22 12:43:41;;;;;;;1.60;1.48;;;;;;;;;;5011360;28;20473;-75
2022/12/22 12:46:25;;;;;;;0.38;0.38;;;;;;;;;;5013366;28;20071;-74
2022/12/22 12:48:51;;;;;;;0.20;0.20;;;;;;;;;;5019768;28;20083;-74
2022/12/22 12:51:40;;;;;;;0.20;0.20;;;;;;;;;;5015378;28;20492;-74
2022/12/22 12:54:25;;;;;;;0.57;0.57;;;;;;;;;;5027835;28;20037;-73
2022/12/22 12:57:11;;;;;;;0.95;0.95;;;;;;;;;;5027335;28;20604;-73
2022/12/22 12:59:39;;;;;;;0.40;0.40;;;;;;;;;;5030786;28;20384;-73
2022/12/22 13:02:23;;;;;;;0.20;0.20;;;;;;;;;;5029624;28;20104;-73
2022/12/22 13:05:14;;;;;;;0.30;0.30;;;;;;;;;;5028751;28;20557;-74
2022/12/22 13:07:58;;;;;;;0.20;0.20;;;;;;;;;;5027844;28;20124;-73
2022/12/22 13:10:24;;;;;;;0.20;0.20;;;;;;;;;;5027669;28;20026;-74
2022/12/22 13:12:52;;;;;;;0.32;0.32;;;;;;;;;;5014510;28;20380;-74
2022/12/22 13:15:33;;;;;;;0.17;0.17;;;;;;;;;;5013502;28;20481;-75
2022/12/22 13:18:00;;;;;;;0.30;0.30;;;;;;;;;;5010703;28;20022;-74
2022/12/22 13:20:33;;;;;;;0.13;0.13;;;;;;;;;;5014956;28;20041;-74
2022/12/22 13:23:01;;;;;;;0.20;0.20;;;;;;;;;;5009364;28;20034;-73
2022/12/22 13:25:53;;;;;;;0.15;0.15;;;;;;;;;;5009438;28;20017;-74
2022/12/22 13:28:20;;;;;;;0.20;0.20;;;;;;;;;;5010572;28;20042;-73
2022/12/22 13:31:12;;;;;;;0.20;0.20;;;;;;;;;;5010133;28;20022;-73
2022/12/22 13:33:40;;;;;;;0.40;0.40;;;;;;;;;;5010342;28;20034;-73
2022/12/22 13:36:07;;;;;;;0.20;0.20;;;;;;;;;;5010659;28;20018;-75
2022/12/22 13:38:34;;;;;;;0.50;0.50;;;;;;;;;;5010520;28;20292;-74
2022/12/22 13:41:16;;;;;;;0.32;0.30;;;;;;;;;;5010428;28;20053;-74
2022/12/22 13:43:43;;;;;;;0.73;0.73;;;;;;;;;;5010280;28;20034;-74
2022/12/22 13:46:09;;;;;;;0.20;0.20;;;;;;;;;;5010412;28;20258;-73
2022/12/22 13:48:42;;;;;;;0.55;0.47;;;;;;;;;;5010173;28;20041;-74
2022/12/22 13:51:13;;;;;;;0.20;0.20;;;;;;;;;;5010689;28;20038;-74
2022/12/22 13:53:42;;;;;;;0.10;0.10;;;;;;;;;;5010138;28;20057;-74
2022/12/22 13:56:12;;;;;;;0.10;0.10;;;;;;;;;;5010058;28;20507;-73
2022/12/22 13:58:40;;;;;;;0.20;0.20;;;;;;;;;;5010121;28;20095;-74
2022/12/22 14:01:08;;;;;;;0.38;0.38;;;;;;;;;;5010278;28;20120;-74
2022/12/22 14:03:34;;;;;;;0.83;0.80;;;;;;;;;;5008624;28;20484;-74
2022/12/22 14:06:00;;;;;;;0.15;0.15;;;;;;;;;;5009835;28;20268;-75
2022/12/22 14:08:25;;;;;;;0.30;0.30;;;;;;;;;;5009585;28;20033;-74
2022/12/22 14:10:52;;;;;;;0.20;0.20;;;;;;;;;;5009846;28;20112;-73
2022/12/22 14:13:19;;;;;;;0.20;0.20;;;;;;;;;;5009655;28;20112;-74
2022/12/22 14:15:45;;;;;;;0.30;0.30;;;;;;;;;;5009973;28;20030;-73
2022/12/22 14:18:13;;;;;;;0.20;0.20;;;;;;;;;;5009753;28;20355;-73
2022/12/22 14:20:39;;;;;;;0.30;0.30;;;;;;;;;;5009613;28;20028;-73
2022/12/22 14:23:25;;;;;;;0.20;0.20;;;;;;;;;;5009945;28;20128;-73
2022/12/22 14:25:51;;;;;;;0.20;0.20;;;;;;;;;;5009485;28;20508;-72
2022/12/22 14:28:19;;;;;;;0.10;0.10;;;;;;;;;;5008384;28;20049;-72
2022/12/22 14:30:50;;;;;;;0.47;0.40;;;;;;;;;;5008952;28;20115;-73
2022/12/22 14:33:28;;;;;;;0.30;0.30;;;;;;;;;;5009730;28;20448;-74
2022/12/22 14:36:12;;;;;;;0.20;0.20;;;;;;;;;;5009727;28;20034;-73
2022/12/22 14:38:42;;;;;;;0.20;0.20;;;;;;;;;;5009546;28;20279;-73
2022/12/22 14:41:09;;;;;;;0.20;0.20;;;;;;;;;;5011884;28;20045;-74
2022/12/22 14:43:34;;;;;;;0.20;0.20;;;;;;;;;;5012093;28;20123;-74
2022/12/22 14:46:05;;;;;;;0.10;0.10;;;;;;;;;;5018169;28;20072;-74
2022/12/22 14:48:36;;;;;;;2.05;1.95;;;;;;;;;;5029236;28;20033;-74
2022/12/22 14:51:02;;;;;;;2.25;2.15;;;;;;;;;;5019926;28;20048;-74
2022/12/22 14:53:35;;;;;;;0.20;0.20;;;;;;;;;;5018007;28;20022;-74
2022/12/22 14:56:01;;;;;;;0.17;0.17;;;;;;;;;;5011468;28;20515;-73
2022/12/22 14:58:33;;;;;;;0.10;0.10;;;;;;;;;;5020348;28;20363;-72
2022/12/22 15:01:18;;;;;;;0.10;0.10;;;;;;;;;;5017078;28;20383;-72
2022/12/22 15:03:55;;;;;;;0.10;0.10;;;;;;;;;;5012875;28;20030;-73
2022/12/22 15:06:27;;;;;;;0.10;0.10;;;;;;;;;;5009458;28;20038;-73
2022/12/22 15:09:01;;;;;;;0.13;0.13;;;;;;;;;;5009184;28;20105;-73
2022/12/22 15:11:28;;;;;;;0.20;0.20;;;;;;;;;;5008979;28;20062;-73
2022/12/22 15:13:54;;;;;;;0.60;0.60;;;;;;;;;;5013591;28;20052;-73
2022/12/22 15:16:21;;;;;;;0.10;0.10;;;;;;;;;;5009394;28;20073;-74
2022/12/22 15:18:46;;;;;;;0.35;0.35;;;;;;;;;;5021504;28;20036;-74
2022/12/22 15:21:13;;;;;;;0.10;0.10;;;;;;;;;;5026324;28;20030;-73
2022/12/22 15:23:39;;;;;;;0.10;0.10;;;;;;;;;;5021764;28;20485;-74
2022/12/22 15:26:05;;;;;;;0.10;0.10;;;;;;;;;;5016253;28;20022;-74
2022/12/22 15:28:30;;;;;;;0.40;0.40;;;;;;;;;;5015865;28;20022;-73
2022/12/22 15:30:57;;;;;;;0.32;0.32;;;;;;;;;;5021441;28;20026;-74
2022/12/22 15:33:23;;;;;;;0.70;0.70;;;;;;;;;;5029971;28;20065;-74
2022/12/22 15:35:48;;;;;;;0.10;0.10;;;;;;;;;;5022779;28;20111;-74
2022/12/22 15:38:16;;;;;;;0.10;0.10;;;;;;;;;;5012644;28;20017;-74
2022/12/22 15:40:41;;;;;;;0.28;0.28;;;;;;;;;;5012676;28;20073;-73
2022/12/22 15:43:07;;;;;;;1.60;1.50;;;;;;;;;;5012446;28;20057;-73
2022/12/22 15:45:35;;;;;;;0.38;0.38;;;;;;;;;;5014962;28;20025;-73
2022/12/22 15:48:01;;;;;;;0.75;0.75;;;;;;;;;;5021302;28;20072;-74
2022/12/22 15:50:38;;;;;;;0.10;0.10;;;;;;;;;;5032735;28;20032;-73
2022/12/22 15:53:05;;;;;;;0.10;0.10;;;;;;;;;;5013034;28;20057;-73
2022/12/22 15:55:31;;;;;;;0.10;0.10;;;;;;;;;;5010654;28;20037;-73
2022/12/22 15:57:57;;;;;;;0.10;0.10;;;;;;;;;;5010011;28;20038;-72
2022/12/22 16:00:23;;;;;;;0.20;0.20;;;;;;;;;;5010582;28;20029;-72
2022/12/22 16:02:49;;;;;;;0.10;0.10;;;;;;;;;;5012661;28;20049;-73
2022/12/22 16:05:15;;;;;;;0.10;0.10;;;;;;;;;;5012407;28;20483;-73
2022/12/22 16:07:41;;;;;;;0.47;0.47;;;;;;;;;;5010400;28;20048;-73
2022/12/22 16:10:16;;;;;;;0.10;0.10;;;;;;;;;;5010402;28;20061;-73
2022/12/22 16:12:42;;;;;;;0.10;0.10;;;;;;;;;;5008831;28;20481;-72
2022/12/22 16:15:12;;;;;;;0.30;0.30;;;;;;;;;;5010114;28;20017;-72
2022/12/22 16:17:37;;;;;;;0.10;0.10;;;;;;;;;;5010298;28;20040;-73
2022/12/22 16:20:03;;;;;;;0.63;0.63;;;;;;;;;;5010522;28;20101;-74
2022/12/22 16:22:31;;;;;;;1.90;1.67;;;;;;;;;;5012348;28;20100;-72
2022/12/22 16:24:56;;;;;;;2.78;2.50;;;;;;;;;;5010793;28;20030;-72
2022/12/22 16:27:22;;;;;;;0.28;0.28;;;;;;;;;;5011738;28;20373;-73
2022/12/22 16:29:50;;;;;;;0.10;0.10;;;;;;;;;;5011599;28;20365;-73
2022/12/22 16:32:23;;;;;;;2.13;1.13;;;;;;;;;;5011839;28;20034;-73
2022/12/22 16:34:48;;;;;;;0.20;0.20;;;;;;;;;;5011787;28;20428;-73
2022/12/22 16:37:14;;;;;;;0.10;0.10;;;;;;;;;;5011864;28;20026;-72
2022/12/22 16:39:40;;;;;;;0.77;0.77;;;;;;;;;;5010834;28;20080;-72
2022/12/22 16:42:11;;;;;;;0.10;0.10;;;;;;;;;;5012033;28;20061;-72
2022/12/22 16:44:36;;;;;;;0.68;0.68;;;;;;;;;;5011892;28;20033;-74
2022/12/22 16:47:03;;;;;;;0.20;0.20;;;;;;;;;;5011930;28;20417;-74
2022/12/22 16:49:29;;;;;;;1.38;1.27;;;;;;;;;;5008180;28;20109;-74
2022/12/22 16:51:54;;;;;;;1.10;1.10;;;;;;;;;;5009552;28;20117;-72
2022/12/22 16:54:20;;;;;;;2.92;2.72;;;;;;;;;;5010008;28;20209;-72
2022/12/22 16:56:46;;;;;;;0.10;0.10;;;;;;;;;;5009818;28;20033;-70
2022/12/22 16:59:12;;;;;;;0.65;0.65;;;;;;;;;;5009560;28;20600;-70
2022/12/22 17:01:37;;;;;;;0.10;0.10;;;;;;;;;;5008959;28;20496;-70
2022/12/22 17:04:06;;;;;;;0.10;0.10;;;;;;;;;;5009519;28;20072;-70
2022/12/22 17:06:32;;;;;;;1.15;1.15;;;;;;;;;;5009216;28;20485;-70
2022/12/22 17:08:58;;;;;;;0.63;0.63;;;;;;;;;;5009416;28;20067;-69
2022/12/22 17:11:26;;;;;;;0.68;0.68;;;;;;;;;;5008659;28;20114;-71
2022/12/22 17:13:52;;;;;;;1.30;1.27;;;;;;;;;;5009425;28;20120;-70
2022/12/22 17:16:19;;;;;;;0.25;0.25;;;;;;;;;;5009399;28;20448;-70
2022/12/22 17:18:45;;;;;;;0.13;0.13;;;;;;;;;;5009473;28;20026;-69
2022/12/22 17:21:11;;;;;;;0.28;0.28;;;;;;;;;;5014720;28;20045;-70
2022/12/22 17:23:38;;;;;;;0.20;0.20;;;;;;;;;;5014907;28;20057;-71
2022/12/22 17:26:06;;;;;;;0.20;0.20;;;;;;;;;;5009571;28;20087;-71
2022/12/22 17:28:32;;;;;;;8.82;4.90;;;;;;;;;;5008861;28;20034;-70
2022/12/22 17:30:57;;;;;;;0.35;0.35;;;;;;;;;;5009286;28;20092;-71
2022/12/22 17:33:23;;;;;;;1.73;1.63;;;;;;;;;;5008548;28;20018;-72
2022/12/22 17:35:49;;;;;;;15.30;14.13;;;;;;;;;;5008619;28;20034;-72
2022/12/22 17:38:16;;;;;;;0.73;0.73;;;;;;;;;;5008998;28;20034;-73
2022/12/22 17:40:42;;;;;;;0.10;0.10;;;;;;;;;;5007218;28;20050;-71
2022/12/22 17:43:14;;;;;;;0.20;0.20;;;;;;;;;;5007811;28;20045;-72
2022/12/22 17:45:40;;;;;;;0.20;0.20;;;;;;;;;;5008396;28;20034;-71
2022/12/22 17:48:06;;;;;;;1.15;1.08;;;;;;;;;;5008057;28;20037;-73
2022/12/22 17:50:32;;;;;;;0.93;0.77;;;;;;;;;;5016076;28;20026;-72
2022/12/22 17:52:59;;;;;;;3.03;2.83;;;;;;;;;;5018313;28;20040;-70
2022/12/22 17:55:25;;;;;;;0.40;0.40;;;;;;;;;;5019132;28;20104;-71
2022/12/22 17:57:51;;;;;;;0.73;0.73;;;;;;;;;;5008717;28;20034;-71
2022/12/22 18:00:20;;;;;;;0.10;0.10;;;;;;;;;;5008278;28;20026;-72
2022/12/22 18:02:46;;;;;;;0.67;0.67;;;;;;;;;;5008372;28;20034;-70
2022/12/22 18:05:15;;;;;;;0.10;0.10;;;;;;;;;;5012540;28;20052;-73
2022/12/22 18:07:41;;;;;;;0.10;0.10;;;;;;;;;;5022923;28;20032;-71
2022/12/22 18:10:14;;;;;;;0.85;0.77;;;;;;;;;;5024445;28;20026;-71
2022/12/22 18:12:40;;;;;;;1.25;1.23;;;;;;;;;;5018072;28;20801;-70
2022/12/22 18:15:15;;;;;;;0.20;0.20;;;;;;;;;;5006453;28;20026;-71
2022/12/22 18:17:41;;;;;;;0.20;0.20;;;;;;;;;;5006740;28;20026;-71
2022/12/22 18:20:08;;;;;;;0.65;0.65;;;;;;;;;;5010245;28;20368;-72
2022/12/22 18:22:34;;;;;;;0.38;0.38;;;;;;;;;;5007638;28;20096;-71
2022/12/22 18:25:00;;;;;;;0.10;0.10;;;;;;;;;;5027770;28;20130;-72
2022/12/22 18:27:25;;;;;;;0.50;0.50;;;;;;;;;;5026444;28;20021;-71